Matane, Canada
Current Conditions -  °F | °C
As of 11:10 AM on Saturday 22 Nov 2014 (Local Time) from CYYY Reporting Station
Light Snow Light Snow  
Wind Chill:   Ceiling: 1200
Heat Index: 19°   Visibility: 5mi
Dew Point: 14°   Wind: 17mph
Humidity: 80%   Direction: 210°SSW
Pressure: 29.83"   Gusts: 26mph
Location:  48.85°N, 67.53°W
Report Text: CYYY 221610Z 21015G23KT 5SM -SN DRSN OVC012 M07/M10 A2983 RMK SN2SC6 PRESFR SLP106
Loading
Personal Weather Stations






























Interactive Weather Map New forecast layout! Learn more

10-Day Weather Forecast

Advertisements
Track Severe Weather on mobile